sensor_id;sensor_type;location;lat;lon;timestamp;pressure;altitude;pressure_sealevel;temperature;humidity
64086;BME280;50333;47.436;21.390;2023-02-26T00:01:42;99361.37;;;6.10;76.75
64086;BME280;50333;47.436;21.390;2023-02-26T00:04:10;99365.22;;;5.97;77.18
64086;BME280;50333;47.436;21.390;2023-02-26T00:06:39;99360.37;;;6.26;75.68
64086;BME280;50333;47.436;21.390;2023-02-26T00:09:21;99366.59;;;6.30;75.53
64086;BME280;50333;47.436;21.390;2023-02-26T00:11:49;99366.31;;;6.27;76.01
64086;BME280;50333;47.436;21.390;2023-02-26T00:14:18;99376.00;;;5.78;77.05
64086;BME280;50333;47.436;21.390;2023-02-26T00:16:51;99363.16;;;6.04;76.63
64086;BME280;50333;47.436;21.390;2023-02-26T00:19:22;99377.97;;;6.19;75.23
64086;BME280;50333;47.436;21.390;2023-02-26T00:21:50;99399.06;;;5.95;77.38
64086;BME280;50333;47.436;21.390;2023-02-26T00:24:18;99389.34;;;6.18;76.24
64086;BME280;50333;47.436;21.390;2023-02-26T00:26:46;99388.34;;;6.24;75.85
64086;BME280;50333;47.436;21.390;2023-02-26T00:29:14;99379.78;;;6.34;75.45
64086;BME280;50333;47.436;21.390;2023-02-26T00:31:42;99381.97;;;5.84;76.33
64086;BME280;50333;47.436;21.390;2023-02-26T00:34:11;99377.75;;;6.31;75.68
64086;BME280;50333;47.436;21.390;2023-02-26T00:41:49;99375.31;;;5.98;77.53
64086;BME280;50333;47.436;21.390;2023-02-26T00:44:17;99370.72;;;6.21;75.84
64086;BME280;50333;47.436;21.390;2023-02-26T00:47:30;99373.03;;;6.17;75.98
64086;BME280;50333;47.436;21.390;2023-02-26T00:50:04;99371.25;;;6.33;75.41
64086;BME280;50333;47.436;21.390;2023-02-26T00:55:42;99367.13;;;6.53;74.57
64086;BME280;50333;47.436;21.390;2023-02-26T00:58:09;99361.19;;;6.68;74.13
64086;BME280;50333;47.436;21.390;2023-02-26T01:00:37;99362.50;;;6.45;74.41
64086;BME280;50333;47.436;21.390;2023-02-26T01:03:06;99364.03;;;6.66;74.10
64086;BME280;50333;47.436;21.390;2023-02-26T01:05:34;99371.81;;;6.61;74.08
64086;BME280;50333;47.436;21.390;2023-02-26T01:08:14;99378.31;;;6.64;74.11
64086;BME280;50333;47.436;21.390;2023-02-26T01:10:45;99376.22;;;6.71;73.62
64086;BME280;50333;47.436;21.390;2023-02-26T01:13:13;99369.72;;;6.53;73.91
64086;BME280;50333;47.436;21.390;2023-02-26T01:15:46;99367.66;;;6.60;74.30
64086;BME280;50333;47.436;21.390;2023-02-26T01:18:25;99368.19;;;6.72;73.45
64086;BME280;50333;47.436;21.390;2023-02-26T01:21:07;99369.72;;;6.53;74.30
64086;BME280;50333;47.436;21.390;2023-02-26T01:23:42;99371.03;;;6.66;73.61
64086;BME280;50333;47.436;21.390;2023-02-26T01:26:20;99369.22;;;6.66;73.49
64086;BME280;50333;47.436;21.390;2023-02-26T01:28:51;99376.75;;;6.68;73.55
64086;BME280;50333;47.436;21.390;2023-02-26T01:31:25;99366.13;;;6.79;72.79
64086;BME280;50333;47.436;21.390;2023-02-26T01:34:14;99361.44;;;6.40;74.08
64086;BME280;50333;47.436;21.390;2023-02-26T01:37:22;99363.97;;;6.20;75.45
64086;BME280;50333;47.436;21.390;2023-02-26T01:40:50;99372.31;;;6.89;75.15
64086;BME280;50333;47.436;21.390;2023-02-26T01:42:52;99370.53;;;6.64;74.11
64086;BME280;50333;47.436;21.390;2023-02-26T01:45:32;99368.72;;;6.59;73.33
64086;BME280;50333;47.436;21.390;2023-02-26T01:48:11;99364.81;;;6.67;73.30
64086;BME280;50333;47.436;21.390;2023-02-26T01:50:44;99357.28;;;6.65;72.87
64086;BME280;50333;47.436;21.390;2023-02-26T01:55:45;99373.34;;;6.47;73.81
64086;BME280;50333;47.436;21.390;2023-02-26T01:58:17;99371.53;;;6.47;73.95
64086;BME280;50333;47.436;21.390;2023-02-26T02:00:46;99372.06;;;6.59;73.15
64086;BME280;50333;47.436;21.390;2023-02-26T02:03:14;99370.78;;;6.67;73.01
64086;BME280;50333;47.436;21.390;2023-02-26T02:05:46;99375.97;;;6.62;73.06
64086;BME280;50333;47.436;21.390;2023-02-26T02:08:18;99378.28;;;6.43;73.94
64086;BME280;50333;47.436;21.390;2023-02-26T02:10:47;99384.25;;;6.54;73.26
64086;BME280;50333;47.436;21.390;2023-02-26T02:13:32;99378.78;;;6.45;73.46
64086;BME280;50333;47.436;21.390;2023-02-26T02:21:49;99414.44;;;5.59;76.71
64086;BME280;50333;47.436;21.390;2023-02-26T02:24:57;99418.06;;;6.16;75.74
64086;BME280;50333;47.436;21.390;2023-02-26T02:30:37;99416.72;;;6.03;76.18
64086;BME280;50333;47.436;21.390;2023-02-26T02:32:50;99419.91;;;5.63;77.88
64086;BME280;50333;47.436;21.390;2023-02-26T02:38:11;99419.75;;;5.90;76.57
64086;BME280;50333;47.436;21.390;2023-02-26T02:40:46;99425.16;;;5.89;76.23
64086;BME280;50333;47.436;21.390;2023-02-26T02:43:18;99419.56;;;5.49;78.28
64086;BME280;50333;47.436;21.390;2023-02-26T02:45:51;99427.47;;;5.85;77.44
64086;BME280;50333;47.436;21.390;2023-02-26T02:48:27;99435.53;;;5.94;77.14
64086;BME280;50333;47.436;21.390;2023-02-26T02:51:18;99434.63;;;6.10;76.37
64086;BME280;50333;47.436;21.390;2023-02-26T02:53:50;99434.28;;;5.96;76.96
64086;BME280;50333;47.436;21.390;2023-02-26T02:56:33;99435.53;;;5.08;80.29
64086;BME280;50333;47.436;21.390;2023-02-26T02:59:13;99428.50;;;5.36;79.35
64086;BME280;50333;47.436;21.390;2023-02-26T03:01:43;99435.66;;;5.61;78.72
64086;BME280;50333;47.436;21.390;2023-02-26T03:04:14;99443.06;;;5.95;77.64
64086;BME280;50333;47.436;21.390;2023-02-26T03:06:43;99439.59;;;5.32;79.57
64086;BME280;50333;47.436;21.390;2023-02-26T03:09:13;99431.63;;;5.86;78.27
64086;BME280;50333;47.436;21.390;2023-02-26T03:11:41;99417.13;;;5.85;78.40
64086;BME280;50333;47.436;21.390;2023-02-26T03:14:09;99425.06;;;5.63;78.52
64086;BME280;50333;47.436;21.390;2023-02-26T03:17:32;99433.41;;;5.33;80.56
64086;BME280;50333;47.436;21.390;2023-02-26T03:22:28;99431.88;;;5.37;79.50
64086;BME280;50333;47.436;21.390;2023-02-26T03:25:30;99426.50;;;5.43;80.32
64086;BME280;50333;47.436;21.390;2023-02-26T03:28:14;99418.03;;;5.53;78.66
64086;BME280;50333;47.436;21.390;2023-02-26T03:30:52;99421.75;;;5.78;78.87
64086;BME280;50333;47.436;21.390;2023-02-26T03:34:33;99430.13;;;5.47;79.69
64086;BME280;50333;47.436;21.390;2023-02-26T03:36:46;99437.41;;;5.51;79.24
64086;BME280;50333;47.436;21.390;2023-02-26T03:39:26;99434.84;;;5.56;79.62
64086;BME280;50333;47.436;21.390;2023-02-26T03:45:05;99427.94;;;5.72;78.06
64086;BME280;50333;47.436;21.390;2023-02-26T03:47:35;99441.34;;;6.06;76.85
64086;BME280;50333;47.436;21.390;2023-02-26T03:50:08;99456.56;;;6.02;76.96
64086;BME280;50333;47.436;21.390;2023-02-26T03:52:42;99456.62;;;5.65;77.94
64086;BME280;50333;47.436;21.390;2023-02-26T03:55:29;99450.28;;;5.93;77.08
64086;BME280;50333;47.436;21.390;2023-02-26T03:57:58;99449.38;;;6.15;75.89
64086;BME280;50333;47.436;21.390;2023-02-26T04:00:28;99445.31;;;6.34;75.25
64086;BME280;50333;47.436;21.390;2023-02-26T04:03:15;99453.81;;;5.72;77.17
64086;BME280;50333;47.436;21.390;2023-02-26T04:05:47;99446.19;;;5.97;76.54
64086;BME280;50333;47.436;21.390;2023-02-26T04:08:19;99442.91;;;6.12;75.94
64086;BME280;50333;47.436;21.390;2023-02-26T04:10:54;99446.81;;;6.15;75.57
64086;BME280;50333;47.436;21.390;2023-02-26T04:13:24;99459.75;;;6.15;75.54
64086;BME280;50333;47.436;21.390;2023-02-26T04:15:52;99452.81;;;6.36;74.56
64086;BME280;50333;47.436;21.390;2023-02-26T04:18:20;99447.13;;;6.44;73.74
64086;BME280;50333;47.436;21.390;2023-02-26T04:20:48;99466.28;;;6.43;73.72
64086;BME280;50333;47.436;21.390;2023-02-26T04:23:16;99478.22;;;6.49;73.05
64086;BME280;50333;47.436;21.390;2023-02-26T04:25:45;99490.41;;;6.54;72.77
64086;BME280;50333;47.436;21.390;2023-02-26T04:28:15;99491.72;;;6.72;71.70
64086;BME280;50333;47.436;21.390;2023-02-26T04:30:43;99493.03;;;6.69;71.26
64086;BME280;50333;47.436;21.390;2023-02-26T04:33:12;99497.44;;;6.84;70.76
64086;BME280;50333;47.436;21.390;2023-02-26T04:35:41;99492.53;;;6.67;71.08
64086;BME280;50333;47.436;21.390;2023-02-26T04:38:09;99492.53;;;6.72;70.53
64086;BME280;50333;47.436;21.390;2023-02-26T04:40:37;99491.50;;;6.78;70.19
64086;BME280;50333;47.436;21.390;2023-02-26T04:43:05;99482.94;;;6.73;69.97
64086;BME280;50333;47.436;21.390;2023-02-26T04:45:33;99486.31;;;6.89;68.93
64086;BME280;50333;47.436;21.390;2023-02-26T04:48:03;99489.44;;;6.86;68.74
64086;BME280;50333;47.436;21.390;2023-02-26T04:50:31;99489.94;;;6.83;68.62
64086;BME280;50333;47.436;21.390;2023-02-26T04:52:59;99494.88;;;6.89;68.43
64086;BME280;50333;47.436;21.390;2023-02-26T04:55:27;99492.81;;;6.96;68.15
64086;BME280;50333;47.436;21.390;2023-02-26T04:57:56;99486.84;;;7.01;67.93
64086;BME280;50333;47.436;21.390;2023-02-26T05:00:24;99489.69;;;6.89;68.12
64086;BME280;50333;47.436;21.390;2023-02-26T05:02:52;99485.00;;;6.71;68.60
64086;BME280;50333;47.436;21.390;2023-02-26T05:05:20;99475.63;;;6.54;68.77
64086;BME280;50333;47.436;21.390;2023-02-26T05:07:48;99480.81;;;6.54;68.98
64086;BME280;50333;47.436;21.390;2023-02-26T05:10:16;99475.94;;;6.78;67.99
64086;BME280;50333;47.436;21.390;2023-02-26T05:12:44;99485.00;;;6.71;68.01
64086;BME280;50333;47.436;21.390;2023-02-26T05:15:14;99477.97;;;6.56;68.39
64086;BME280;50333;47.436;21.390;2023-02-26T05:17:42;99490.91;;;6.56;68.48
64086;BME280;50333;47.436;21.390;2023-02-26T05:20:11;99487.34;;;6.72;67.93
64086;BME280;50333;47.436;21.390;2023-02-26T05:22:39;99487.81;;;6.54;67.91
64086;BME280;50333;47.436;21.390;2023-02-26T05:25:07;99485.72;;;6.51;68.03
64086;BME280;50333;47.436;21.390;2023-02-26T05:27:35;99498.37;;;6.37;68.51
64086;BME280;50333;47.436;21.390;2023-02-26T05:30:04;99508.75;;;6.42;68.36
64086;BME280;50333;47.436;21.390;2023-02-26T05:32:33;99505.87;;;6.38;68.06
64086;BME280;50333;47.436;21.390;2023-02-26T05:35:01;99516.69;;;6.25;68.45
64086;BME280;50333;47.436;21.390;2023-02-26T05:37:28;99503.28;;;6.38;68.06
64086;BME280;50333;47.436;21.390;2023-02-26T05:39:56;99511.13;;;6.59;67.44
64086;BME280;50333;47.436;21.390;2023-02-26T05:42:24;99516.84;;;6.61;67.29
64086;BME280;50333;47.436;21.390;2023-02-26T05:44:52;99512.63;;;6.39;67.74
64086;BME280;50333;47.436;21.390;2023-02-26T05:47:19;99514.78;;;6.73;66.96
64086;BME280;50333;47.436;21.390;2023-02-26T05:49:48;99522.28;;;6.65;67.18
64086;BME280;50333;47.436;21.390;2023-02-26T05:52:16;99516.84;;;6.61;67.42
64086;BME280;50333;47.436;21.390;2023-02-26T05:54:44;99517.59;;;6.61;67.48
64086;BME280;50333;47.436;21.390;2023-02-26T05:57:12;99529.25;;;6.54;67.08
64086;BME280;50333;47.436;21.390;2023-02-26T05:59:39;99543.19;;;6.48;67.79
64086;BME280;50333;47.436;21.390;2023-02-26T06:02:08;99546.25;;;6.34;68.12
64086;BME280;50333;47.436;21.390;2023-02-26T06:04:36;99550.53;;;6.66;67.37
64086;BME280;50333;47.436;21.390;2023-02-26T06:07:03;99555.62;;;6.46;68.02
64086;BME280;50333;47.436;21.390;2023-02-26T06:09:31;99569.34;;;6.51;68.04
64086;BME280;50333;47.436;21.390;2023-02-26T06:11:59;99572.25;;;6.55;67.90
64086;BME280;50333;47.436;21.390;2023-02-26T06:14:27;99570.81;;;6.32;68.02
64086;BME280;50333;47.436;21.390;2023-02-26T06:16:54;99562.59;;;6.40;68.54
64086;BME280;50333;47.436;21.390;2023-02-26T06:19:22;99571.31;;;6.23;68.75
64086;BME280;50333;47.436;21.390;2023-02-26T06:21:50;99577.69;;;6.11;69.11
64086;BME280;50333;47.436;21.390;2023-02-26T06:24:18;99579.03;;;6.13;69.41
64086;BME280;50333;47.436;21.390;2023-02-26T06:26:46;99581.87;;;6.12;69.32
64086;BME280;50333;47.436;21.390;2023-02-26T06:29:14;99585.81;;;5.87;69.50
64086;BME280;50333;47.436;21.390;2023-02-26T06:31:41;99578.22;;;6.13;69.58
64086;BME280;50333;47.436;21.390;2023-02-26T06:34:09;99579.50;;;6.05;69.80
64086;BME280;50333;47.436;21.390;2023-02-26T06:36:37;99576.69;;;6.12;69.43
64086;BME280;50333;47.436;21.390;2023-02-26T06:39:05;99578.22;;;6.13;69.57
64086;BME280;50333;47.436;21.390;2023-02-26T06:41:33;99585.03;;;6.24;69.17
64086;BME280;50333;47.436;21.390;2023-02-26T06:44:01;99588.56;;;6.13;69.35
64086;BME280;50333;47.436;21.390;2023-02-26T06:46:29;99589.87;;;6.10;69.53
64086;BME280;50333;47.436;21.390;2023-02-26T06:48:57;99606.38;;;6.04;69.20
64086;BME280;50333;47.436;21.390;2023-02-26T06:51:25;99614.97;;;6.10;69.29
64086;BME280;50333;47.436;21.390;2023-02-26T06:53:52;99612.44;;;6.15;69.34
64086;BME280;50333;47.436;21.390;2023-02-26T06:56:21;99616.75;;;6.09;69.37
64086;BME280;50333;47.436;21.390;2023-02-26T06:58:50;99602.31;;;6.13;69.31
64086;BME280;50333;47.436;21.390;2023-02-26T07:01:18;99604.87;;;6.08;69.89
64086;BME280;50333;47.436;21.390;2023-02-26T07:03:46;99616.03;;;6.14;69.77
64086;BME280;50333;47.436;21.390;2023-02-26T07:06:14;99624.94;;;6.33;69.17
64086;BME280;50333;47.436;21.390;2023-02-26T07:08:54;99642.81;;;6.35;69.32
64086;BME280;50333;47.436;21.390;2023-02-26T07:11:23;99646.06;;;6.15;70.36
64086;BME280;50333;47.436;21.390;2023-02-26T07:13:50;99631.72;;;6.39;69.23
64086;BME280;50333;47.436;21.390;2023-02-26T07:16:19;99626.66;;;5.85;71.32
64086;BME280;50333;47.436;21.390;2023-02-26T07:18:47;99609.53;;;5.46;72.01
64086;BME280;50333;47.436;21.390;2023-02-26T07:21:15;99615.06;;;5.60;72.23
64086;BME280;50333;47.436;21.390;2023-02-26T07:23:43;99616.91;;;5.92;70.73
64086;BME280;50333;47.436;21.390;2023-02-26T07:26:11;99617.81;;;6.08;70.45
64086;BME280;50333;47.436;21.390;2023-02-26T07:28:39;99614.34;;;5.65;70.01
64086;BME280;50333;47.436;21.390;2023-02-26T07:31:06;99609.41;;;5.63;70.16
64086;BME280;50333;47.436;21.390;2023-02-26T07:33:35;99616.69;;;5.39;69.54
64086;BME280;50333;47.436;21.390;2023-02-26T07:36:05;99611.94;;;5.26;70.33
64086;BME280;50333;47.436;21.390;2023-02-26T07:38:33;99619.13;;;5.51;69.35
64086;BME280;50333;47.436;21.390;2023-02-26T07:41:01;99627.09;;;5.44;69.24
64086;BME280;50333;47.436;21.390;2023-02-26T07:43:29;99627.84;;;5.45;69.40
64086;BME280;50333;47.436;21.390;2023-02-26T07:45:56;99633.06;;;5.50;68.83
64086;BME280;50333;47.436;21.390;2023-02-26T07:48:24;99639.88;;;5.56;68.42
64086;BME280;50333;47.436;21.390;2023-02-26T07:50:53;99636.19;;;5.47;68.65
64086;BME280;50333;47.436;21.390;2023-02-26T07:53:21;99623.81;;;5.54;68.23
64086;BME280;50333;47.436;21.390;2023-02-26T07:55:49;99640.09;;;5.27;69.95
64086;BME280;50333;47.436;21.390;2023-02-26T07:58:17;99647.75;;;5.17;70.67
64086;BME280;50333;47.436;21.390;2023-02-26T08:00:45;99658.63;;;5.46;70.20
64086;BME280;50333;47.436;21.390;2023-02-26T08:03:13;99651.97;;;5.51;70.29
64086;BME280;50333;47.436;21.390;2023-02-26T08:05:41;99657.59;;;5.70;69.17
64086;BME280;50333;47.436;21.390;2023-02-26T08:08:09;99667.41;;;4.74;72.17
64086;BME280;50333;47.436;21.390;2023-02-26T08:10:37;99666.69;;;5.01;71.24
64086;BME280;50333;47.436;21.390;2023-02-26T08:13:08;99659.47;;;5.03;71.20
64086;BME280;50333;47.436;21.390;2023-02-26T08:15:36;99668.00;;;4.81;70.87
64086;BME280;50333;47.436;21.390;2023-02-26T08:18:04;99666.31;;;4.92;70.31
64086;BME280;50333;47.436;21.390;2023-02-26T08:20:32;99678.53;;;4.58;70.13
64086;BME280;50333;47.436;21.390;2023-02-26T08:23:00;99695.22;;;4.50;69.96
64086;BME280;50333;47.436;21.390;2023-02-26T08:25:28;99700.00;;;4.41;70.40
64086;BME280;50333;47.436;21.390;2023-02-26T08:27:55;99709.66;;;4.68;69.62
64086;BME280;50333;47.436;21.390;2023-02-26T08:30:25;99700.44;;;4.72;68.76
64086;BME280;50333;47.436;21.390;2023-02-26T08:32:52;99693.19;;;4.35;70.85
64086;BME280;50333;47.436;21.390;2023-02-26T08:35:20;99690.22;;;4.82;69.74
64086;BME280;50333;47.436;21.390;2023-02-26T08:37:48;99696.09;;;5.00;69.00
64086;BME280;50333;47.436;21.390;2023-02-26T08:40:17;99688.72;;;4.47;70.67
64086;BME280;50333;47.436;21.390;2023-02-26T08:42:45;99693.09;;;4.64;70.53
64086;BME280;50333;47.436;21.390;2023-02-26T08:45:13;99697.41;;;4.80;70.18
64086;BME280;50333;47.436;21.390;2023-02-26T08:47:41;99705.06;;;4.92;69.85
64086;BME280;50333;47.436;21.390;2023-02-26T08:50:23;99702.00;;;5.17;68.84
64086;BME280;50333;47.436;21.390;2023-02-26T08:52:51;99696.84;;;5.17;68.51
64086;BME280;50333;47.436;21.390;2023-02-26T08:55:19;99714.62;;;4.91;69.96
64086;BME280;50333;47.436;21.390;2023-02-26T08:57:47;99716.50;;;5.18;68.71
64086;BME280;50333;47.436;21.390;2023-02-26T09:00:16;99734.44;;;5.08;68.90
64086;BME280;50333;47.436;21.390;2023-02-26T09:02:45;99739.16;;;5.11;68.52
64086;BME280;50333;47.436;21.390;2023-02-26T09:05:14;99739.91;;;5.12;68.52
64086;BME280;50333;47.436;21.390;2023-02-26T09:07:42;99738.06;;;5.07;68.51
64086;BME280;50333;47.436;21.390;2023-02-26T09:10:11;99733.56;;;5.19;68.96
64086;BME280;50333;47.436;21.390;2023-02-26T09:12:40;99746.88;;;4.89;70.17
64086;BME280;50333;47.436;21.390;2023-02-26T09:15:09;99746.72;;;4.79;70.27
64086;BME280;50333;47.436;21.390;2023-02-26T09:17:37;99740.09;;;5.05;69.79
64086;BME280;50333;47.436;21.390;2023-02-26T09:20:06;99748.28;;;4.97;70.51
64086;BME280;50333;47.436;21.390;2023-02-26T09:22:36;99749.13;;;4.85;70.36
64086;BME280;50333;47.436;21.390;2023-02-26T09:25:06;99749.87;;;4.81;70.61
64086;BME280;50333;47.436;21.390;2023-02-26T09:27:33;99753.19;;;4.98;70.13
64086;BME280;50333;47.436;21.390;2023-02-26T09:30:03;99761.66;;;4.94;69.17
64086;BME280;50333;47.436;21.390;2023-02-26T09:32:32;99773.75;;;5.10;69.23
64086;BME280;50333;47.436;21.390;2023-02-26T09:35:00;99768.84;;;5.31;69.20
64086;BME280;50333;47.436;21.390;2023-02-26T09:37:29;99772.63;;;5.23;69.82
64086;BME280;50333;47.436;21.390;2023-02-26T09:39:57;99785.13;;;5.09;69.87
64086;BME280;50333;47.436;21.390;2023-02-26T09:42:35;99779.34;;;5.02;69.99
64086;BME280;50333;47.436;21.390;2023-02-26T09:45:17;99777.06;;;5.05;69.32
64086;BME280;50333;47.436;21.390;2023-02-26T09:47:51;99784.28;;;4.86;69.72
64086;BME280;50333;47.436;21.390;2023-02-26T09:50:25;99777.91;;;4.72;70.46
64086;BME280;50333;47.436;21.390;2023-02-26T09:57:58;99781.63;;;4.81;69.98
64086;BME280;50333;47.436;21.390;2023-02-26T10:00:40;99796.59;;;4.79;68.99
64086;BME280;50333;47.436;21.390;2023-02-26T10:09:43;99815.28;;;5.03;68.25
64086;BME280;50333;47.436;21.390;2023-02-26T10:12:23;99810.78;;;5.16;68.02
64086;BME280;50333;47.436;21.390;2023-02-26T10:15:38;99816.28;;;4.51;69.35
64086;BME280;50333;47.436;21.390;2023-02-26T10:20:27;99815.03;;;4.71;69.11
64086;BME280;50333;47.436;21.390;2023-02-26T10:26:03;99824.28;;;4.67;69.68
64086;BME280;50333;47.436;21.390;2023-02-26T10:31:37;99833.97;;;4.94;68.34
64086;BME280;50333;47.436;21.390;2023-02-26T10:39:38;99833.75;;;4.95;66.55
64086;BME280;50333;47.436;21.390;2023-02-26T10:42:14;99833.06;;;5.22;66.61
64086;BME280;50333;47.436;21.390;2023-02-26T10:47:33;99836.41;;;5.00;66.25
64086;BME280;50333;47.436;21.390;2023-02-26T10:50:07;99843.13;;;5.01;65.76
64086;BME280;50333;47.436;21.390;2023-02-26T10:52:37;99844.84;;;4.96;65.21
64086;BME280;50333;47.436;21.390;2023-02-26T10:55:33;99846.59;;;5.07;65.29
64086;BME280;50333;47.436;21.390;2023-02-26T10:58:11;99852.69;;;4.84;64.89
64086;BME280;50333;47.436;21.390;2023-02-26T11:00:45;99852.59;;;4.96;64.98
64086;BME280;50333;47.436;21.390;2023-02-26T11:03:20;99852.91;;;4.99;65.26
64086;BME280;50333;47.436;21.390;2023-02-26T11:05:48;99849.25;;;5.12;65.08
64086;BME280;50333;47.436;21.390;2023-02-26T11:08:25;99847.59;;;5.06;64.90
64086;BME280;50333;47.436;21.390;2023-02-26T11:10:57;99846.00;;;5.05;64.69
64086;BME280;50333;47.436;21.390;2023-02-26T11:13:28;99848.34;;;5.23;64.28
64086;BME280;50333;47.436;21.390;2023-02-26T11:16:00;99851.41;;;5.20;63.97
64086;BME280;50333;47.436;21.390;2023-02-26T11:18:36;99847.34;;;5.07;64.34
64086;BME280;50333;47.436;21.390;2023-02-26T11:21:06;99840.56;;;5.40;64.31
64086;BME280;50333;47.436;21.390;2023-02-26T11:23:36;99841.66;;;5.44;63.71
64086;BME280;50333;47.436;21.390;2023-02-26T11:26:13;99846.44;;;5.36;64.07
64086;BME280;50333;47.436;21.390;2023-02-26T11:28:45;99849.72;;;5.09;63.92
64086;BME280;50333;47.436;21.390;2023-02-26T11:31:17;99839.81;;;5.23;64.32
64086;BME280;50333;47.436;21.390;2023-02-26T11:34:04;99847.53;;;5.40;64.40
64086;BME280;50333;47.436;21.390;2023-02-26T11:36:38;99852.47;;;5.41;64.91
64086;BME280;50333;47.436;21.390;2023-02-26T11:39:20;99841.34;;;5.41;64.45
64086;BME280;50333;47.436;21.390;2023-02-26T11:41:49;99852.59;;;5.29;64.21
64086;BME280;50333;47.436;21.390;2023-02-26T11:44:25;99856.66;;;5.64;64.23
64086;BME280;50333;47.436;21.390;2023-02-26T11:46:56;99857.84;;;5.79;62.82
64086;BME280;50333;47.436;21.390;2023-02-26T11:49:27;99865.88;;;5.60;62.49
64086;BME280;50333;47.436;21.390;2023-02-26T11:52:18;99865.69;;;5.45;62.45
64086;BME280;50333;47.436;21.390;2023-02-26T11:54:50;99869.53;;;5.42;62.86
64086;BME280;50333;47.436;21.390;2023-02-26T11:57:25;99871.75;;;5.34;64.01
64086;BME280;50333;47.436;21.390;2023-02-26T11:59:55;99874.06;;;5.52;63.25
64086;BME280;50333;47.436;21.390;2023-02-26T12:02:30;99874.84;;;5.53;63.90
64086;BME280;50333;47.436;21.390;2023-02-26T12:05:02;99872.59;;;5.78;63.51
64086;BME280;50333;47.436;21.390;2023-02-26T12:07:31;99877.03;;;5.83;63.24
64086;BME280;50333;47.436;21.390;2023-02-26T12:09:59;99878.44;;;5.91;63.38
64086;BME280;50333;47.436;21.390;2023-02-26T12:12:53;99880.34;;;5.78;62.85
64086;BME280;50333;47.436;21.390;2023-02-26T12:15:35;99889.34;;;5.76;62.85
64086;BME280;50333;47.436;21.390;2023-02-26T12:18:20;99892.22;;;5.96;62.11
64086;BME280;50333;47.436;21.390;2023-02-26T12:21:18;99883.69;;;5.96;60.99
64086;BME280;50333;47.436;21.390;2023-02-26T12:46:25;99907.41;;;5.71;60.17
64086;BME280;50333;47.436;21.390;2023-02-26T12:49:24;99907.69;;;5.74;61.14
64086;BME280;50333;47.436;21.390;2023-02-26T12:54:46;99920.00;;;5.84;59.70
64086;BME280;50333;47.436;21.390;2023-02-26T13:00:03;99930.41;;;5.89;59.17
64086;BME280;50333;47.436;21.390;2023-02-26T13:17:42;99939.78;;;5.56;58.20
64086;BME280;50333;47.436;21.390;2023-02-26T13:20:16;99949.38;;;5.78;58.22
64086;BME280;50333;47.436;21.390;2023-02-26T13:22:58;99955.37;;;5.61;57.97
64086;BME280;50333;47.436;21.390;2023-02-26T13:28:16;99964.88;;;5.39;58.77
64086;BME280;50333;47.436;21.390;2023-02-26T13:30:49;99977.34;;;5.42;58.27
64086;BME280;50333;47.436;21.390;2023-02-26T13:33:23;99978.59;;;5.56;58.01
64086;BME280;50333;47.436;21.390;2023-02-26T13:35:52;99981.78;;;5.80;57.39
64086;BME280;50333;47.436;21.390;2023-02-26T13:41:26;99980.94;;;5.75;57.99
64086;BME280;50333;47.436;21.390;2023-02-26T13:51:50;99997.53;;;5.79;57.59
64086;BME280;50333;47.436;21.390;2023-02-26T13:56:48;100014.97;;;5.89;57.24
64086;BME280;50333;47.436;21.390;2023-02-26T13:59:28;100013.97;;;5.73;57.32
64086;BME280;50333;47.436;21.390;2023-02-26T14:02:02;100012.12;;;5.51;56.30
64086;BME280;50333;47.436;21.390;2023-02-26T14:04:56;100013.44;;;5.71;56.92
64086;BME280;50333;47.436;21.390;2023-02-26T14:07:53;100024.81;;;5.70;55.89
64086;BME280;50333;47.436;21.390;2023-02-26T14:10:36;100034.19;;;5.76;56.03
64086;BME280;50333;47.436;21.390;2023-02-26T14:13:18;100030.53;;;5.72;55.26
64086;BME280;50333;47.436;21.390;2023-02-26T14:21:48;100040.25;;;5.64;55.82
64086;BME280;50333;47.436;21.390;2023-02-26T14:24:37;100030.91;;;5.63;55.34
64086;BME280;50333;47.436;21.390;2023-02-26T14:32:25;100056.44;;;5.43;54.18
64086;BME280;50333;47.436;21.390;2023-02-26T14:34:58;100059.62;;;5.16;54.73
64086;BME280;50333;47.436;21.390;2023-02-26T14:37:38;100066.06;;;5.31;54.52
64086;BME280;50333;47.436;21.390;2023-02-26T14:40:13;100061.63;;;5.26;53.65
64086;BME280;50333;47.436;21.390;2023-02-26T14:42:47;100061.63;;;5.43;54.53
64086;BME280;50333;47.436;21.390;2023-02-26T14:45:25;100071.81;;;5.50;53.53
64086;BME280;50333;47.436;21.390;2023-02-26T14:47:57;100079.44;;;5.56;53.46
64086;BME280;50333;47.436;21.390;2023-02-26T14:50:41;100082.44;;;5.19;53.85
64086;BME280;50333;47.436;21.390;2023-02-26T15:09:17;100094.78;;;5.17;53.68
64086;BME280;50333;47.436;21.390;2023-02-26T15:15:27;100115.41;;;5.00;52.74
64086;BME280;50333;47.436;21.390;2023-02-26T15:21:09;100119.88;;;5.34;52.43
64086;BME280;50333;47.436;21.390;2023-02-26T15:23:43;100128.00;;;5.25;52.31
64086;BME280;50333;47.436;21.390;2023-02-26T15:26:21;100132.72;;;5.28;52.38
64086;BME280;50333;47.436;21.390;2023-02-26T15:28:51;100134.78;;;5.15;53.03
64086;BME280;50333;47.436;21.390;2023-02-26T15:31:27;100135.22;;;5.23;52.90
64086;BME280;50333;47.436;21.390;2023-02-26T15:33:57;100134.03;;;5.31;52.97
64086;BME280;50333;47.436;21.390;2023-02-26T15:36:28;100127.69;;;5.22;53.17
64086;BME280;50333;47.436;21.390;2023-02-26T15:38:59;100122.50;;;5.22;53.76
64086;BME280;50333;47.436;21.390;2023-02-26T15:41:29;100129.19;;;5.06;53.27
64086;BME280;50333;47.436;21.390;2023-02-26T15:44:05;100134.50;;;4.87;54.00
64086;BME280;50333;47.436;21.390;2023-02-26T15:46:38;100147.06;;;5.07;53.75
64086;BME280;50333;47.436;21.390;2023-02-26T15:49:09;100140.44;;;5.00;53.58
64086;BME280;50333;47.436;21.390;2023-02-26T15:51:39;100144.69;;;5.06;53.15
64086;BME280;50333;47.436;21.390;2023-02-26T15:54:15;100148.13;;;4.95;53.65
64086;BME280;50333;47.436;21.390;2023-02-26T15:56:45;100144.69;;;5.18;53.20
64086;BME280;50333;47.436;21.390;2023-02-26T15:59:25;100142.25;;;4.99;53.18